sensor_id;sensor_type;location;lat;lon;timestamp;pressure;altitude;pressure_sealevel;temperature;humidity
61113;BME280;47184;57.998;56.184;2023-04-01T00:00:52;100133.31;;;5.63;61.10
61113;BME280;47184;57.998;56.184;2023-04-01T00:03:20;100109.50;;;5.66;61.12
61113;BME280;47184;57.998;56.184;2023-04-01T00:05:46;100123.72;;;5.84;60.76
61113;BME280;47184;57.998;56.184;2023-04-01T00:08:13;100117.94;;;6.02;60.63
61113;BME280;47184;57.998;56.184;2023-04-01T00:10:39;100125.41;;;6.06;60.58
61113;BME280;47184;57.998;56.184;2023-04-01T00:13:05;100120.47;;;6.13;60.06
61113;BME280;47184;57.998;56.184;2023-04-01T00:15:31;100115.41;;;6.21;60.38
61113;BME280;47184;57.998;56.184;2023-04-01T00:17:57;100106.59;;;6.22;59.29
61113;BME280;47184;57.998;56.184;2023-04-01T00:20:24;100118.97;;;6.41;59.53
61113;BME280;47184;57.998;56.184;2023-04-01T00:22:51;100104.97;;;6.31;59.65
61113;BME280;47184;57.998;56.184;2023-04-01T00:25:17;100105.50;;;6.25;60.08
61113;BME280;47184;57.998;56.184;2023-04-01T00:27:43;100107.78;;;6.39;59.53
61113;BME280;47184;57.998;56.184;2023-04-01T00:30:09;100106.41;;;6.44;59.22
61113;BME280;47184;57.998;56.184;2023-04-01T00:32:35;100096.13;;;6.32;59.26
61113;BME280;47184;57.998;56.184;2023-04-01T00:35:02;100111.41;;;6.48;59.11
61113;BME280;47184;57.998;56.184;2023-04-01T00:37:29;100107.97;;;6.57;58.56
61113;BME280;47184;57.998;56.184;2023-04-01T00:39:56;100104.50;;;6.47;59.29
61113;BME280;47184;57.998;56.184;2023-04-01T00:42:23;100109.19;;;6.53;59.24
61113;BME280;47184;57.998;56.184;2023-04-01T00:44:54;100101.53;;;6.30;59.75
61113;BME280;47184;57.998;56.184;2023-04-01T00:47:22;100091.22;;;6.38;59.54
61113;BME280;47184;57.998;56.184;2023-04-01T00:49:51;100100.22;;;6.45;59.11
61113;BME280;47184;57.998;56.184;2023-04-01T00:52:21;100090.41;;;6.48;58.90
61113;BME280;47184;57.998;56.184;2023-04-01T00:54:54;100088.63;;;6.48;59.23
61113;BME280;47184;57.998;56.184;2023-04-01T00:57:31;100087.50;;;6.41;59.28
61113;BME280;47184;57.998;56.184;2023-04-01T00:59:59;100088.22;;;6.53;59.30
61113;BME280;47184;57.998;56.184;2023-04-01T01:02:25;100085.72;;;6.51;59.16
61113;BME280;47184;57.998;56.184;2023-04-01T01:04:52;100083.19;;;6.40;59.65
61113;BME280;47184;57.998;56.184;2023-04-01T01:12:46;100098.25;;;6.38;59.67
61113;BME280;47184;57.998;56.184;2023-04-01T01:15:22;100104.81;;;6.53;59.36
61113;BME280;47184;57.998;56.184;2023-04-01T01:36:49;100145.31;;;6.39;60.24
61113;BME280;47184;57.998;56.184;2023-04-01T01:39:18;100156.78;;;6.38;60.47
61113;BME280;47184;57.998;56.184;2023-04-01T01:41:48;100155.94;;;6.38;60.45
61113;BME280;47184;57.998;56.184;2023-04-01T01:44:16;100161.56;;;6.54;60.10
61113;BME280;47184;57.998;56.184;2023-04-01T01:46:43;100145.38;;;6.49;60.33
61113;BME280;47184;57.998;56.184;2023-04-01T01:49:11;100123.81;;;6.45;60.78
61113;BME280;47184;57.998;56.184;2023-04-01T01:51:38;100132.53;;;6.46;60.53
61113;BME280;47184;57.998;56.184;2023-04-01T01:54:12;100133.75;;;6.42;61.24
61113;BME280;47184;57.998;56.184;2023-04-01T01:56:41;100133.59;;;6.43;61.31
61113;BME280;47184;57.998;56.184;2023-04-01T01:59:11;100118.34;;;6.28;61.26
61113;BME280;47184;57.998;56.184;2023-04-01T02:01:42;100116.78;;;6.46;61.33
61113;BME280;47184;57.998;56.184;2023-04-01T02:04:13;100108.66;;;6.49;61.10
61113;BME280;47184;57.998;56.184;2023-04-01T02:06:46;100125.34;;;6.48;61.21
61113;BME280;47184;57.998;56.184;2023-04-01T02:09:15;100135.97;;;6.47;61.80
61113;BME280;47184;57.998;56.184;2023-04-01T02:12:12;100136.38;;;6.42;61.51
61113;BME280;47184;57.998;56.184;2023-04-01T02:17:19;100128.94;;;6.47;61.43
61113;BME280;47184;57.998;56.184;2023-04-01T02:19:50;100134.56;;;6.42;62.01
61113;BME280;47184;57.998;56.184;2023-04-01T02:22:23;100121.59;;;6.41;62.06
61113;BME280;47184;57.998;56.184;2023-04-01T02:24:52;100118.44;;;6.47;61.45
61113;BME280;47184;57.998;56.184;2023-04-01T02:27:19;100145.31;;;6.39;62.34
61113;BME280;47184;57.998;56.184;2023-04-01T02:29:46;100144.03;;;6.55;61.80
61113;BME280;47184;57.998;56.184;2023-04-01T02:32:13;100118.28;;;6.49;61.16
61113;BME280;47184;57.998;56.184;2023-04-01T02:34:40;100123.09;;;6.43;61.33
61113;BME280;47184;57.998;56.184;2023-04-01T02:37:07;100153.44;;;6.36;62.42
61113;BME280;47184;57.998;56.184;2023-04-01T02:39:33;100148.28;;;6.56;61.45
61113;BME280;47184;57.998;56.184;2023-04-01T02:41:59;100155.59;;;6.52;61.94
61113;BME280;47184;57.998;56.184;2023-04-01T02:44:26;100149.41;;;6.53;62.16
61113;BME280;47184;57.998;56.184;2023-04-01T02:46:52;100148.72;;;6.61;62.02
61113;BME280;47184;57.998;56.184;2023-04-01T02:49:19;100154.97;;;6.39;62.97
61113;BME280;47184;57.998;56.184;2023-04-01T02:51:45;100145.97;;;6.32;63.31
61113;BME280;47184;57.998;56.184;2023-04-01T02:54:11;100141.25;;;6.56;62.75
61113;BME280;47184;57.998;56.184;2023-04-01T02:56:37;100137.16;;;6.63;62.09
61113;BME280;47184;57.998;56.184;2023-04-01T02:59:04;100144.84;;;6.55;62.74
61113;BME280;47184;57.998;56.184;2023-04-01T03:01:30;100142.22;;;6.55;63.08
61113;BME280;47184;57.998;56.184;2023-04-01T03:03:56;100117.53;;;6.58;62.84
61113;BME280;47184;57.998;56.184;2023-04-01T03:06:22;100106.91;;;6.69;63.02
61113;BME280;47184;57.998;56.184;2023-04-01T03:08:48;100096.47;;;6.88;61.68
61113;BME280;47184;57.998;56.184;2023-04-01T03:11:15;100105.63;;;6.94;62.32
61113;BME280;47184;57.998;56.184;2023-04-01T03:13:41;100125.00;;;7.12;61.26
61113;BME280;47184;57.998;56.184;2023-04-01T03:16:08;100111.59;;;7.25;61.30
61113;BME280;47184;57.998;56.184;2023-04-01T03:18:34;100115.31;;;7.13;61.23
61113;BME280;47184;57.998;56.184;2023-04-01T03:21:18;100121.28;;;7.15;61.32
61113;BME280;47184;57.998;56.184;2023-04-01T03:23:44;100112.84;;;7.11;61.75
61113;BME280;47184;57.998;56.184;2023-04-01T03:26:12;100123.19;;;7.13;61.43
61113;BME280;47184;57.998;56.184;2023-04-01T03:28:39;100129.28;;;7.13;61.22
61113;BME280;47184;57.998;56.184;2023-04-01T03:31:05;100154.19;;;7.29;61.00
61113;BME280;47184;57.998;56.184;2023-04-01T03:33:39;100148.47;;;7.14;61.05
61113;BME280;47184;57.998;56.184;2023-04-01T03:36:05;100159.97;;;7.13;62.00
61113;BME280;47184;57.998;56.184;2023-04-01T03:38:33;100163.56;;;7.12;62.05
61113;BME280;47184;57.998;56.184;2023-04-01T03:40:59;100161.84;;;7.01;62.71
61113;BME280;47184;57.998;56.184;2023-04-01T03:43:25;100155.69;;;7.12;62.58
61113;BME280;47184;57.998;56.184;2023-04-01T03:45:53;100141.00;;;7.09;62.49
61113;BME280;47184;57.998;56.184;2023-04-01T03:48:20;100153.63;;;7.25;62.81
61113;BME280;47184;57.998;56.184;2023-04-01T03:50:47;100125.81;;;7.13;62.69
61113;BME280;47184;57.998;56.184;2023-04-01T03:53:14;100139.97;;;7.31;61.98
61113;BME280;47184;57.998;56.184;2023-04-01T03:55:43;100154.50;;;7.35;62.49
61113;BME280;47184;57.998;56.184;2023-04-01T03:58:13;100109.31;;;6.82;63.89
61113;BME280;47184;57.998;56.184;2023-04-01T04:00:40;100167.47;;;7.27;63.18
61113;BME280;47184;57.998;56.184;2023-04-01T04:03:06;100154.06;;;7.40;62.75
61113;BME280;47184;57.998;56.184;2023-04-01T04:05:34;100133.03;;;7.20;63.07
61113;BME280;47184;57.998;56.184;2023-04-01T04:08:02;100165.56;;;7.39;62.52
61113;BME280;47184;57.998;56.184;2023-04-01T04:10:28;100164.28;;;7.24;63.20
61113;BME280;47184;57.998;56.184;2023-04-01T04:12:55;100163.47;;;7.42;62.94
61113;BME280;47184;57.998;56.184;2023-04-01T04:15:23;100128.47;;;7.32;62.79
61113;BME280;47184;57.998;56.184;2023-04-01T04:17:50;100134.28;;;7.75;62.48
61113;BME280;47184;57.998;56.184;2023-04-01T04:20:16;100104.28;;;7.58;62.55
61113;BME280;47184;57.998;56.184;2023-04-01T04:22:44;100139.28;;;7.97;62.05
61113;BME280;47184;57.998;56.184;2023-04-01T04:25:10;100125.34;;;8.24;61.27
61113;BME280;47184;57.998;56.184;2023-04-01T04:27:38;100141.53;;;8.49;61.05
61113;BME280;47184;57.998;56.184;2023-04-01T04:30:08;100142.38;;;8.49;60.28
61113;BME280;47184;57.998;56.184;2023-04-01T04:32:35;100164.94;;;8.32;60.65
61113;BME280;47184;57.998;56.184;2023-04-01T04:35:02;100159.63;;;8.05;61.40
61113;BME280;47184;57.998;56.184;2023-04-01T04:37:29;100151.28;;;8.09;60.93
61113;BME280;47184;57.998;56.184;2023-04-01T04:39:55;100166.78;;;8.22;60.89
61113;BME280;47184;57.998;56.184;2023-04-01T04:42:21;100157.09;;;8.13;61.25
61113;BME280;47184;57.998;56.184;2023-04-01T04:44:53;100158.22;;;8.10;61.41
61113;BME280;47184;57.998;56.184;2023-04-01T04:47:19;100172.91;;;7.93;62.06
61113;BME280;47184;57.998;56.184;2023-04-01T04:49:46;100173.16;;;7.90;61.93
61113;BME280;47184;57.998;56.184;2023-04-01T04:52:13;100145.06;;;7.91;62.02
61113;BME280;47184;57.998;56.184;2023-04-01T04:54:40;100163.34;;;8.02;61.71
61113;BME280;47184;57.998;56.184;2023-04-01T04:57:06;100169.84;;;7.79;62.90
61113;BME280;47184;57.998;56.184;2023-04-01T04:59:38;100180.09;;;7.91;62.77
61113;BME280;47184;57.998;56.184;2023-04-01T05:02:10;100176.91;;;8.17;61.55
61113;BME280;47184;57.998;56.184;2023-04-01T05:04:36;100171.88;;;8.33;61.53
61113;BME280;47184;57.998;56.184;2023-04-01T05:07:07;100153.72;;;8.50;61.11
61113;BME280;47184;57.998;56.184;2023-04-01T05:09:33;100138.47;;;8.53;61.16
61113;BME280;47184;57.998;56.184;2023-04-01T05:12:01;100144.38;;;8.65;61.06
61113;BME280;47184;57.998;56.184;2023-04-01T05:14:35;100142.50;;;8.57;60.79
61113;BME280;47184;57.998;56.184;2023-04-01T05:17:11;100135.69;;;8.55;61.15
61113;BME280;47184;57.998;56.184;2023-04-01T05:19:38;100125.84;;;8.57;61.15
61113;BME280;47184;57.998;56.184;2023-04-01T05:22:06;100121.00;;;8.62;61.17
61113;BME280;47184;57.998;56.184;2023-04-01T05:24:33;100111.31;;;8.53;60.93
61113;BME280;47184;57.998;56.184;2023-04-01T05:26:59;100137.44;;;8.64;60.88
61113;BME280;47184;57.998;56.184;2023-04-01T05:29:26;100134.44;;;8.59;61.21
61113;BME280;47184;57.998;56.184;2023-04-01T05:32:03;100133.06;;;8.55;61.78
61113;BME280;47184;57.998;56.184;2023-04-01T05:34:31;100137.84;;;8.69;61.00
61113;BME280;47184;57.998;56.184;2023-04-01T05:36:58;100120.28;;;8.60;61.15
61113;BME280;47184;57.998;56.184;2023-04-01T05:39:24;100124.28;;;8.64;61.04
61113;BME280;47184;57.998;56.184;2023-04-01T05:41:50;100092.47;;;8.57;61.24
61113;BME280;47184;57.998;56.184;2023-04-01T05:44:17;100126.47;;;8.78;60.76
61113;BME280;47184;57.998;56.184;2023-04-01T05:46:43;100116.72;;;8.51;61.63
61113;BME280;47184;57.998;56.184;2023-04-01T05:49:21;100107.63;;;8.46;61.35
61113;BME280;47184;57.998;56.184;2023-04-01T05:51:49;100115.50;;;8.36;61.76
61113;BME280;47184;57.998;56.184;2023-04-01T05:54:17;100133.38;;;8.32;62.09
61113;BME280;47184;57.998;56.184;2023-04-01T05:56:45;100144.25;;;7.90;63.73
61113;BME280;47184;57.998;56.184;2023-04-01T05:59:11;100157.97;;;7.84;63.91
61113;BME280;47184;57.998;56.184;2023-04-01T06:01:38;100138.16;;;7.90;63.50
61113;BME280;47184;57.998;56.184;2023-04-01T06:04:04;100142.31;;;7.92;63.82
61113;BME280;47184;57.998;56.184;2023-04-01T06:06:32;100153.53;;;7.85;64.12
61113;BME280;47184;57.998;56.184;2023-04-01T06:09:23;100158.38;;;7.80;64.57
61113;BME280;47184;57.998;56.184;2023-04-01T06:23:31;100153.22;;;8.17;63.62
61113;BME280;47184;57.998;56.184;2023-04-01T06:28:47;100143.50;;;8.27;63.47
61113;BME280;47184;57.998;56.184;2023-04-01T06:37:01;100156.78;;;8.35;63.63
61113;BME280;47184;57.998;56.184;2023-04-01T06:39:46;100142.69;;;8.07;64.50
61113;BME280;47184;57.998;56.184;2023-04-01T06:48:23;100151.88;;;7.74;65.89
61113;BME280;47184;57.998;56.184;2023-04-01T06:54:44;100128.50;;;7.52;66.19
61113;BME280;47184;57.998;56.184;2023-04-01T06:57:41;100143.16;;;7.74;66.04
61113;BME280;47184;57.998;56.184;2023-04-01T07:00:31;100133.88;;;7.89;65.71
61113;BME280;47184;57.998;56.184;2023-04-01T07:03:44;100144.53;;;7.87;66.16
61113;BME280;47184;57.998;56.184;2023-04-01T07:06:27;100131.69;;;7.65;66.14
61113;BME280;47184;57.998;56.184;2023-04-01T07:09:02;100118.81;;;7.42;66.60
61113;BME280;47184;57.998;56.184;2023-04-01T07:11:50;100123.94;;;7.73;65.97
61113;BME280;47184;57.998;56.184;2023-04-01T07:14:42;100124.31;;;7.98;65.63
61113;BME280;47184;57.998;56.184;2023-04-01T07:17:28;100107.97;;;8.04;65.04
61113;BME280;47184;57.998;56.184;2023-04-01T07:20:37;100101.75;;;8.05;65.06
61113;BME280;47184;57.998;56.184;2023-04-01T07:23:04;100121.00;;;8.05;64.99
61113;BME280;47184;57.998;56.184;2023-04-01T07:25:52;100116.53;;;8.15;64.88
61113;BME280;47184;57.998;56.184;2023-04-01T07:28:31;100121.22;;;8.22;65.06
61113;BME280;47184;57.998;56.184;2023-04-01T07:34:12;100109.84;;;8.31;64.57
61113;BME280;47184;57.998;56.184;2023-04-01T07:36:48;100092.94;;;8.33;64.09
61113;BME280;47184;57.998;56.184;2023-04-01T07:45:29;100112.13;;;8.06;64.86
61113;BME280;47184;57.998;56.184;2023-04-01T07:50:27;100112.81;;;7.99;64.82
61113;BME280;47184;57.998;56.184;2023-04-01T07:53:44;100097.81;;;7.72;65.71
61113;BME280;47184;57.998;56.184;2023-04-01T07:56:55;100098.47;;;7.54;66.61
61113;BME280;47184;57.998;56.184;2023-04-01T08:11:13;100034.03;;;6.32;72.12
61113;BME280;47184;57.998;56.184;2023-04-01T08:14:09;100043.34;;;6.46;72.33
61113;BME280;47184;57.998;56.184;2023-04-01T08:22:51;100079.91;;;6.38;74.08
61113;BME280;47184;57.998;56.184;2023-04-01T08:25:30;100061.09;;;6.33;73.59
61113;BME280;47184;57.998;56.184;2023-04-01T08:28:19;100076.22;;;6.50;74.19
61113;BME280;47184;57.998;56.184;2023-04-01T08:31:11;100095.88;;;6.35;76.04
61113;BME280;47184;57.998;56.184;2023-04-01T08:33:46;100095.56;;;6.28;75.99
61113;BME280;47184;57.998;56.184;2023-04-01T08:36:36;100074.13;;;6.13;76.77
61113;BME280;47184;57.998;56.184;2023-04-01T08:39:30;100098.59;;;6.24;77.51
61113;BME280;47184;57.998;56.184;2023-04-01T08:42:09;100106.19;;;6.27;77.07
61113;BME280;47184;57.998;56.184;2023-04-01T08:45:41;100106.00;;;6.18;79.19
61113;BME280;47184;57.998;56.184;2023-04-01T08:48:33;100106.41;;;6.14;79.70
61113;BME280;47184;57.998;56.184;2023-04-01T09:08:35;100068.50;;;5.76;80.81
61113;BME280;47184;57.998;56.184;2023-04-01T09:17:11;100102.16;;;5.92;80.75
61113;BME280;47184;57.998;56.184;2023-04-01T09:26:37;100103.34;;;5.88;80.75
61113;BME280;47184;57.998;56.184;2023-04-01T09:35:00;100092.28;;;5.84;81.84
61113;BME280;47184;57.998;56.184;2023-04-01T09:37:35;100065.31;;;5.72;81.78
61113;BME280;47184;57.998;56.184;2023-04-01T09:43:16;100059.03;;;5.64;81.93
61113;BME280;47184;57.998;56.184;2023-04-01T09:53:44;100050.19;;;5.86;82.11
61113;BME280;47184;57.998;56.184;2023-04-01T10:08:06;100036.19;;;6.17;82.28
61113;BME280;47184;57.998;56.184;2023-04-01T10:14:07;100040.50;;;6.28;82.62
61113;BME280;47184;57.998;56.184;2023-04-01T10:20:10;100047.63;;;6.57;80.99
61113;BME280;47184;57.998;56.184;2023-04-01T10:37:50;100034.88;;;6.33;79.60
61113;BME280;47184;57.998;56.184;2023-04-01T10:40:36;100056.72;;;6.43;80.04
61113;BME280;47184;57.998;56.184;2023-04-01T10:52:22;100054.66;;;6.47;80.12
61113;BME280;47184;57.998;56.184;2023-04-01T10:58:51;100058.97;;;6.57;79.30
61113;BME280;47184;57.998;56.184;2023-04-01T11:17:11;100068.81;;;6.25;78.46
61113;BME280;47184;57.998;56.184;2023-04-01T11:20:01;100060.69;;;6.07;78.20
61113;BME280;47184;57.998;56.184;2023-04-01T11:31:45;100038.47;;;5.80;79.54
61113;BME280;47184;57.998;56.184;2023-04-01T11:34:43;100042.53;;;5.73;80.08
61113;BME280;47184;57.998;56.184;2023-04-01T11:37:37;100053.03;;;5.73;79.53
61113;BME280;47184;57.998;56.184;2023-04-01T11:43:45;100050.16;;;5.76;79.72
61113;BME280;47184;57.998;56.184;2023-04-01T11:46:28;100042.50;;;5.63;79.85
61113;BME280;47184;57.998;56.184;2023-04-01T12:01:25;100070.03;;;6.00;78.03
61113;BME280;47184;57.998;56.184;2023-04-01T12:17:36;100093.13;;;6.36;76.00
61113;BME280;47184;57.998;56.184;2023-04-01T12:20:22;100081.06;;;6.24;76.13
61113;BME280;47184;57.998;56.184;2023-04-01T12:23:02;100083.16;;;6.30;75.13
61113;BME280;47184;57.998;56.184;2023-04-01T12:28:29;100075.72;;;6.05;74.93
61113;BME280;47184;57.998;56.184;2023-04-01T12:34:13;100082.19;;;6.31;74.33
61113;BME280;47184;57.998;56.184;2023-04-01T12:40:18;100075.91;;;6.13;73.70
61113;BME280;47184;57.998;56.184;2023-04-01T12:43:05;100072.56;;;6.11;74.08
61113;BME280;47184;57.998;56.184;2023-04-01T12:57:32;100073.31;;;6.23;73.44
61113;BME280;47184;57.998;56.184;2023-04-01T13:06:24;100096.84;;;6.34;72.85
61113;BME280;47184;57.998;56.184;2023-04-01T13:09:21;100103.75;;;6.35;72.34
61113;BME280;47184;57.998;56.184;2023-04-01T13:12:25;100108.84;;;6.36;71.86
61113;BME280;47184;57.998;56.184;2023-04-01T13:15:27;100118.91;;;6.31;72.22
61113;BME280;47184;57.998;56.184;2023-04-01T13:18:16;100115.47;;;6.31;71.95
61113;BME280;47184;57.998;56.184;2023-04-01T13:20:52;100125.31;;;6.38;71.78
61113;BME280;47184;57.998;56.184;2023-04-01T13:23:50;100119.91;;;6.40;70.97
61113;BME280;47184;57.998;56.184;2023-04-01T13:29:07;100124.41;;;6.28;70.29
61113;BME280;47184;57.998;56.184;2023-04-01T13:34:27;100117.28;;;6.40;69.58
61113;BME280;47184;57.998;56.184;2023-04-01T13:37:30;100123.69;;;6.16;68.54
61113;BME280;47184;57.998;56.184;2023-04-01T13:40:39;100115.41;;;6.21;68.88
61113;BME280;47184;57.998;56.184;2023-04-01T13:43:11;100121.75;;;6.18;68.82
61113;BME280;47184;57.998;56.184;2023-04-01T13:52:01;100152.78;;;6.13;67.82
61113;BME280;47184;57.998;56.184;2023-04-01T13:54:55;100152.34;;;6.08;67.96
61113;BME280;47184;57.998;56.184;2023-04-01T14:00:20;100147.19;;;6.07;68.24
61113;BME280;47184;57.998;56.184;2023-04-01T14:03:27;100140.03;;;5.88;68.05
61113;BME280;47184;57.998;56.184;2023-04-01T14:08:42;100145.50;;;5.96;67.87
61113;BME280;47184;57.998;56.184;2023-04-01T14:11:27;100138.38;;;6.08;67.57
61113;BME280;47184;57.998;56.184;2023-04-01T14:23:11;100127.03;;;5.86;67.82
61113;BME280;47184;57.998;56.184;2023-04-01T14:31:40;100133.09;;;5.87;67.63
61113;BME280;47184;57.998;56.184;2023-04-01T14:34:36;100129.44;;;5.78;67.86
61113;BME280;47184;57.998;56.184;2023-04-01T14:48:38;100109.66;;;5.32;68.58
61113;BME280;47184;57.998;56.184;2023-04-01T14:51:31;100142.91;;;5.53;68.03
61113;BME280;47184;57.998;56.184;2023-04-01T14:54:15;100131.84;;;5.49;68.72
61113;BME280;47184;57.998;56.184;2023-04-01T14:57:31;100133.00;;;5.56;67.99
61113;BME280;47184;57.998;56.184;2023-04-01T14:59:51;100128.97;;;5.52;69.17
61113;BME280;47184;57.998;56.184;2023-04-01T15:22:08;100172.97;;;5.26;70.42
61113;BME280;47184;57.998;56.184;2023-04-01T15:28:08;100197.25;;;5.17;70.45
61113;BME280;47184;57.998;56.184;2023-04-01T15:33:42;100200.38;;;5.11;70.32
61113;BME280;47184;57.998;56.184;2023-04-01T15:39:44;100197.03;;;4.97;71.21
61113;BME280;47184;57.998;56.184;2023-04-01T15:52:54;100232.25;;;4.93;72.22
61113;BME280;47184;57.998;56.184;2023-04-01T15:55:31;100226.75;;;4.85;72.04
61113;BME280;47184;57.998;56.184;2023-04-01T16:09:58;100239.34;;;4.69;72.57
61113;BME280;47184;57.998;56.184;2023-04-01T16:12:36;100240.22;;;4.69;72.15
61113;BME280;47184;57.998;56.184;2023-04-01T16:18:04;100242.38;;;4.98;71.71
61113;BME280;47184;57.998;56.184;2023-04-01T16:20:51;100248.31;;;4.78;71.84
61113;BME280;47184;57.998;56.184;2023-04-01T16:23:43;100240.09;;;4.82;72.39
61113;BME280;47184;57.998;56.184;2023-04-01T16:26:37;100241.06;;;4.92;71.92
61113;BME280;47184;57.998;56.184;2023-04-01T16:31:52;100242.81;;;4.81;72.11
61113;BME280;47184;57.998;56.184;2023-04-01T16:34:24;100257.22;;;4.75;72.19
61113;BME280;47184;57.998;56.184;2023-04-01T16:37:03;100253.28;;;4.69;71.87
61113;BME280;47184;57.998;56.184;2023-04-01T16:39:53;100253.06;;;4.84;71.87
61113;BME280;47184;57.998;56.184;2023-04-01T16:47:56;100249.69;;;4.59;72.70
61113;BME280;47184;57.998;56.184;2023-04-01T16:50:28;100258.97;;;4.63;72.60
61113;BME280;47184;57.998;56.184;2023-04-01T17:01:04;100267.06;;;4.71;72.35
61113;BME280;47184;57.998;56.184;2023-04-01T17:03:38;100269.31;;;4.54;73.50
61113;BME280;47184;57.998;56.184;2023-04-01T17:06:33;100269.44;;;4.63;72.97
61113;BME280;47184;57.998;56.184;2023-04-01T17:25:57;100285.69;;;4.56;73.40
61113;BME280;47184;57.998;56.184;2023-04-01T17:28:49;100283.06;;;4.44;74.04
61113;BME280;47184;57.998;56.184;2023-04-01T17:36:57;100296.81;;;4.35;73.62
61113;BME280;47184;57.998;56.184;2023-04-01T17:39:38;100307.66;;;4.42;74.15
61113;BME280;47184;57.998;56.184;2023-04-01T17:42:39;100306.78;;;4.30;74.06
61113;BME280;47184;57.998;56.184;2023-04-01T17:48:39;100294.50;;;4.19;74.58
61113;BME280;47184;57.998;56.184;2023-04-01T17:53:59;100301.34;;;4.33;74.66
61113;BME280;47184;57.998;56.184;2023-04-01T17:56:36;100287.88;;;4.27;74.90
61113;BME280;47184;57.998;56.184;2023-04-01T17:59:23;100303.44;;;4.28;74.61
61113;BME280;47184;57.998;56.184;2023-04-01T18:04:37;100303.13;;;4.33;74.65
61113;BME280;47184;57.998;56.184;2023-04-01T18:07:23;100295.38;;;4.31;74.14
61113;BME280;47184;57.998;56.184;2023-04-01T18:23:43;100333.53;;;4.34;74.34
61113;BME280;47184;57.998;56.184;2023-04-01T18:26:22;100341.44;;;4.45;74.20
61113;BME280;47184;57.998;56.184;2023-04-01T18:29:32;100351.97;;;4.43;74.28
61113;BME280;47184;57.998;56.184;2023-04-01T18:32:21;100349.84;;;4.37;73.77
61113;BME280;47184;57.998;56.184;2023-04-01T18:38:15;100340.44;;;4.11;75.35
61113;BME280;47184;57.998;56.184;2023-04-01T18:41:10;100350.59;;;4.27;75.40
61113;BME280;47184;57.998;56.184;2023-04-01T18:51:57;100381.75;;;4.30;74.83
61113;BME280;47184;57.998;56.184;2023-04-01T18:54:33;100389.16;;;4.36;74.89
61113;BME280;47184;57.998;56.184;2023-04-01T18:57:18;100393.09;;;4.17;75.34
61113;BME280;47184;57.998;56.184;2023-04-01T19:00:03;100380.28;;;4.02;74.95
61113;BME280;47184;57.998;56.184;2023-04-01T19:02:48;100406.78;;;4.21;75.21
61113;BME280;47184;57.998;56.184;2023-04-01T19:05:32;100403.75;;;4.14;74.89
61113;BME280;47184;57.998;56.184;2023-04-01T19:08:28;100412.88;;;4.09;75.52
61113;BME280;47184;57.998;56.184;2023-04-01T19:11:23;100417.50;;;4.05;75.61
61113;BME280;47184;57.998;56.184;2023-04-01T19:14:55;100383.91;;;3.75;75.80
61113;BME280;47184;57.998;56.184;2023-04-01T19:17:21;100417.53;;;3.92;75.79
61113;BME280;47184;57.998;56.184;2023-04-01T19:20:16;100419.28;;;4.05;75.35
61113;BME280;47184;57.998;56.184;2023-04-01T19:25:40;100407.34;;;3.64;76.45
61113;BME280;47184;57.998;56.184;2023-04-01T19:28:43;100417.72;;;3.89;76.36
61113;BME280;47184;57.998;56.184;2023-04-01T19:32:08;100407.06;;;3.92;75.85
61113;BME280;47184;57.998;56.184;2023-04-01T19:42:57;100428.47;;;3.97;75.11
61113;BME280;47184;57.998;56.184;2023-04-01T19:45:55;100426.28;;;3.91;75.57
61113;BME280;47184;57.998;56.184;2023-04-01T20:11:26;100457.72;;;4.03;75.28
61113;BME280;47184;57.998;56.184;2023-04-01T20:19:44;100471.94;;;3.98;74.56
61113;BME280;47184;57.998;56.184;2023-04-01T20:27:44;100481.06;;;3.93;75.24
61113;BME280;47184;57.998;56.184;2023-04-01T20:30:34;100491.59;;;3.79;75.33
61113;BME280;47184;57.998;56.184;2023-04-01T20:39:20;100498.50;;;3.92;75.31
61113;BME280;47184;57.998;56.184;2023-04-01T20:58:16;100518.34;;;4.08;74.58
61113;BME280;47184;57.998;56.184;2023-04-01T21:04:03;100498.69;;;4.02;74.72
61113;BME280;47184;57.998;56.184;2023-04-01T21:09:28;100538.31;;;4.21;75.00
61113;BME280;47184;57.998;56.184;2023-04-01T21:17:55;100527.94;;;4.33;73.40
61113;BME280;47184;57.998;56.184;2023-04-01T21:34:55;100552.06;;;4.36;73.24
61113;BME280;47184;57.998;56.184;2023-04-01T21:51:43;100572.19;;;4.10;73.78
61113;BME280;47184;57.998;56.184;2023-04-01T22:05:30;100566.53;;;4.04;74.58
61113;BME280;47184;57.998;56.184;2023-04-01T22:08:24;100569.78;;;3.94;74.65
61113;BME280;47184;57.998;56.184;2023-04-01T22:13:50;100576.25;;;3.89;74.90
61113;BME280;47184;57.998;56.184;2023-04-01T22:16:26;100583.03;;;3.91;74.85
61113;BME280;47184;57.998;56.184;2023-04-01T22:19:04;100571.03;;;3.89;74.98
61113;BME280;47184;57.998;56.184;2023-04-01T22:21:45;100570.19;;;3.88;75.09
61113;BME280;47184;57.998;56.184;2023-04-01T22:24:27;100573.44;;;3.92;74.54
61113;BME280;47184;57.998;56.184;2023-04-01T22:27:06;100581.56;;;3.87;74.88
61113;BME280;47184;57.998;56.184;2023-04-01T22:40:25;100594.22;;;3.81;75.10
61113;BME280;47184;57.998;56.184;2023-04-01T22:43:00;100608.63;;;3.86;75.15
61113;BME280;47184;57.998;56.184;2023-04-01T22:45:47;100604.34;;;3.72;75.49
61113;BME280;47184;57.998;56.184;2023-04-01T22:48:46;100609.25;;;3.77;75.07
61113;BME280;47184;57.998;56.184;2023-04-01T22:51:22;100608.31;;;3.78;74.94
61113;BME280;47184;57.998;56.184;2023-04-01T22:54:19;100609.97;;;3.66;75.55
61113;BME280;47184;57.998;56.184;2023-04-01T22:57:13;100612.06;;;3.74;75.46
61113;BME280;47184;57.998;56.184;2023-04-01T22:59:57;100606.66;;;3.77;74.66
61113;BME280;47184;57.998;56.184;2023-04-01T23:02:28;100611.75;;;3.79;75.19
61113;BME280;47184;57.998;56.184;2023-04-01T23:05:03;100609.25;;;3.77;74.52